Terminal Aerodrome Forecast
Issued by NWS Sterling, VA

Current Version | Previous Version | Text Only | Print | Product List | Glossary Off
Versions: 1 2 3 4 5 6 7 8 9 10 11 12 13 14 15 16 17 18 19 20 21 22 23

000
FTUS41 KLWX 242053 AAA
TAFDCA
TAF AMD
KDCA 242053Z 2421/2518 16010KT P6SM FEW060 SCT200
     FM250000 20006KT P6SM SCT080
     FM251500 21010KT P6SM SCT250=

USA.gov is the U.S. government's official web portal to all federal, state and local government web resources and services.